Time;durP1;ratioP1;P1;durP2;ratioP2;P2;SDS_P1;SDS_P2;PMS_P1;PMS_P2;Temp;Humidity;BMP_temperature;BMP_pressure;BME280_temperature;BME280_humidity;BME280_pressure;Samples;Min_cycle;Max_cycle;Signal;HPM_P1;HPM_P2
2022/06/14 00:00:54;;;;;;;1.70;0.65;;;12.50;76.70;;;;;;5066335;28;20045;-59
2022/06/14 00:03:20;;;;;;;1.15;0.70;;;12.50;77.00;;;;;;5065485;28;20024;-58
2022/06/14 00:05:46;;;;;;;2.22;0.77;;;12.50;77.00;;;;;;5065604;28;20029;-58
2022/06/14 00:08:12;;;;;;;5.00;0.68;;;12.50;77.10;;;;;;5067845;28;20032;-59
2022/06/14 00:10:39;;;;;;;3.00;0.60;;;12.50;77.10;;;;;;5065526;28;20025;-59
2022/06/14 00:13:05;;;;;;;3.03;0.60;;;12.50;77.30;;;;;;5065236;28;20473;-58
2022/06/14 00:15:31;;;;;;;1.15;0.32;;;12.40;77.50;;;;;;5067214;28;20040;-59
2022/06/14 00:17:56;;;;;;;3.55;0.80;;;12.30;77.80;;;;;;5066782;28;20032;-59
2022/06/14 00:20:22;;;;;;;3.40;0.68;;;12.20;78.20;;;;;;5064114;28;20024;-59
2022/06/14 00:22:48;;;;;;;1.55;0.68;;;12.20;78.40;;;;;;5065226;28;20507;-58
2022/06/14 00:25:39;;;;;;;1.77;0.55;;;12.20;78.70;;;;;;5067082;28;20041;-58
2022/06/14 00:28:06;;;;;;;1.40;0.55;;;12.20;78.90;;;;;;5066959;28;20033;-58
2022/06/14 00:30:32;;;;;;;1.67;0.60;;;12.00;79.10;;;;;;5064240;28;20020;-59
2022/06/14 00:32:58;;;;;;;2.17;0.47;;;12.00;79.50;;;;;;5065274;28;20070;-58
2022/06/14 00:35:24;;;;;;;2.30;0.75;;;11.90;79.80;;;;;;5066526;28;20069;-58
2022/06/14 00:37:50;;;;;;;1.45;0.50;;;11.90;80.10;;;;;;5066320;28;20032;-58
2022/06/14 00:40:19;;;;;;;1.60;0.40;;;11.90;80.30;;;;;;5063970;28;20033;-58
2022/06/14 00:42:45;;;;;;;1.38;0.60;;;11.90;80.60;;;;;;5066878;28;20046;-58
2022/06/14 00:45:14;;;;;;;2.72;0.50;;;11.80;80.70;;;;;;5067082;28;20437;-58
2022/06/14 00:47:46;;;;;;;2.60;0.63;;;11.80;80.80;;;;;;5066264;28;20025;-58
2022/06/14 00:50:22;;;;;;;1.13;0.60;;;11.70;80.90;;;;;;5063383;28;20428;-58
2022/06/14 00:53:07;;;;;;;2.38;0.65;;;11.80;81.10;;;;;;5067009;28;20027;-58
2022/06/14 00:55:39;;;;;;;2.35;0.50;;;11.70;81.10;;;;;;5066444;28;20044;-58
2022/06/14 00:58:14;;;;;;;3.00;0.60;;;11.70;81.30;;;;;;5065311;28;20017;-58
2022/06/14 01:00:48;;;;;;;1.48;0.60;;;11.50;81.90;;;;;;5064789;28;20055;-58
2022/06/14 01:03:19;;;;;;;2.08;0.30;;;11.50;82.30;;;;;;5067027;28;20028;-58
2022/06/14 01:06:08;;;;;;;2.28;0.40;;;11.40;82.60;;;;;;5064421;28;20480;-58
2022/06/14 01:08:57;;;;;;;1.38;0.52;;;11.40;83.00;;;;;;5063270;28;20025;-58
2022/06/14 01:11:41;;;;;;;1.92;0.40;;;11.40;83.20;;;;;;5067060;28;20027;-58
2022/06/14 01:14:09;;;;;;;0.90;0.40;;;11.30;83.50;;;;;;5064929;28;20396;-60
2022/06/14 01:16:36;;;;;;;1.15;0.50;;;11.20;83.80;;;;;;5066473;28;20020;-59
2022/06/14 01:19:06;;;;;;;1.25;0.63;;;11.20;83.80;;;;;;5064829;28;20477;-59
2022/06/14 01:21:31;;;;;;;1.75;0.52;;;11.20;84.00;;;;;;5066342;28;20130;-59
2022/06/14 01:23:57;;;;;;;0.70;0.50;;;11.20;84.20;;;;;;5065941;28;20493;-59
2022/06/14 01:26:25;;;;;;;2.47;0.50;;;11.10;84.30;;;;;;5065576;28;20039;-60
2022/06/14 01:28:59;;;;;;;3.28;0.70;;;11.10;84.40;;;;;;5062291;28;20013;-60
2022/06/14 01:31:27;;;;;;;2.95;0.60;;;11.10;84.70;;;;;;5067568;28;20029;-59
2022/06/14 01:33:57;;;;;;;3.53;0.70;;;11.10;84.90;;;;;;5067864;28;20035;-59
2022/06/14 01:36:37;;;;;;;1.60;0.63;;;11.10;85.00;;;;;;5068544;28;20036;-60
2022/06/14 01:39:07;;;;;;;3.85;0.70;;;11.10;85.90;;;;;;5069270;28;20035;-60
2022/06/14 01:41:40;;;;;;;2.35;0.68;;;11.00;86.10;;;;;;5068940;28;20112;-59
2022/06/14 01:44:33;;;;;;;4.43;0.93;;;11.00;85.60;;;;;;5070818;28;20025;-59
2022/06/14 01:47:33;;;;;;;2.40;0.65;;;11.00;85.80;;;;;;5069395;28;20035;-59
2022/06/14 01:53:43;;;;;;;0.85;0.55;;;10.90;86.10;;;;;;5066953;28;20066;-59
2022/06/14 01:56:19;;;;;;;3.28;0.70;;;10.80;86.30;;;;;;5065450;28;20072;-59
2022/06/14 01:59:05;;;;;;;3.13;0.90;;;10.80;86.70;;;;;;5068882;28;20021;-59
2022/06/14 02:01:57;;;;;;;3.60;0.80;;;10.80;87.00;;;;;;5062914;28;20091;-59
2022/06/14 02:04:38;;;;;;;2.13;0.70;;;10.70;87.00;;;;;;5066089;28;20425;-59
2022/06/14 02:07:44;;;;;;;1.90;0.63;;;10.70;87.30;;;;;;5068758;28;20115;-59
2022/06/14 02:10:31;;;;;;;2.38;0.63;;;10.70;87.40;;;;;;5098712;28;20504;-59
2022/06/14 02:13:18;;;;;;;1.17;0.55;;;10.70;87.80;;;;;;5066342;28;20063;-59
2022/06/14 02:15:49;;;;;;;4.30;0.60;;;10.60;88.00;;;;;;5069056;28;20032;-59
2022/06/14 02:18:33;;;;;;;1.63;0.60;;;10.50;88.30;;;;;;5067157;28;20384;-59
2022/06/14 02:21:05;;;;;;;1.80;0.60;;;10.50;88.60;;;;;;5066531;28;20508;-59
2022/06/14 02:23:37;;;;;;;3.03;0.90;;;10.40;89.00;;;;;;5079419;28;20107;-58
2022/06/14 02:26:24;;;;;;;4.68;0.85;;;10.40;89.30;;;;;;5071284;28;21126;-58
2022/06/14 02:28:58;;;;;;;2.65;0.93;;;10.40;89.60;;;;;;5067007;28;20059;-58
2022/06/14 02:31:48;;;;;;;4.15;1.23;;;10.40;89.80;;;;;;5069414;28;20036;-58
2022/06/14 02:34:17;;;;;;;;;;;10.40;89.80;;;;;;5066525;28;20025;-58
2022/06/14 02:36:56;;;;;;;2.55;0.60;;;10.30;89.90;;;;;;5065148;28;19912;-58
2022/06/14 02:39:26;;;;;;;3.03;0.70;;;10.30;90.10;;;;;;5066947;28;20024;-58
2022/06/14 02:42:06;;;;;;;3.85;0.80;;;10.30;90.10;;;;;;5064730;28;20107;-58
2022/06/14 02:44:41;;;;;;;4.22;1.13;;;10.30;90.10;;;;;;5101966;28;20567;-58
2022/06/14 02:47:22;;;;;;;2.08;0.90;;;10.30;90.00;;;;;;5066916;28;20017;-58
2022/06/14 02:50:13;;;;;;;1.80;0.80;;;10.30;90.00;;;;;;5067532;28;20027;-58
2022/06/14 02:53:01;;;;;;;2.45;0.70;;;10.30;90.10;;;;;;5079649;28;20024;-58
2022/06/14 02:55:37;;;;;;;3.72;0.77;;;10.20;90.30;;;;;;5066015;28;20040;-58
2022/06/14 02:58:02;;;;;;;1.05;0.57;;;10.20;90.40;;;;;;5069615;28;20206;-58
2022/06/14 03:00:43;;;;;;;1.92;0.65;;;10.10;90.60;;;;;;5067533;28;20020;-58
2022/06/14 03:03:18;;;;;;;2.20;0.60;;;10.10;90.90;;;;;;5068710;28;20040;-58
2022/06/14 03:06:05;;;;;;;1.75;0.70;;;10.10;90.80;;;;;;5067475;28;20025;-58
2022/06/14 03:08:59;;;;;;;1.88;0.77;;;10.10;90.80;;;;;;5071861;28;20031;-58
2022/06/14 03:11:39;;;;;;;2.72;0.60;;;10.10;90.90;;;;;;5065553;28;20111;-58
2022/06/14 03:14:23;;;;;;;2.00;0.70;;;10.00;91.00;;;;;;5067422;28;20031;-58
2022/06/14 03:17:17;;;;;;;2.45;1.10;;;10.00;91.10;;;;;;5068457;28;20365;-58
2022/06/14 03:19:51;;;;;;;3.05;0.90;;;10.00;91.20;;;;;;5068324;28;20554;-58
2022/06/14 03:22:22;;;;;;;3.00;0.93;;;9.90;91.30;;;;;;5066132;28;20029;-58
2022/06/14 03:25:31;;;;;;;2.13;0.90;;;9.90;91.40;;;;;;5066982;28;20103;-58
2022/06/14 03:28:04;;;;;;;2.55;0.70;;;9.90;91.40;;;;;;5068340;28;20492;-58
2022/06/14 03:30:42;;;;;;;2.85;0.90;;;9.90;91.50;;;;;;5064526;28;20020;-58
2022/06/14 03:33:22;;;;;;;5.78;1.10;;;9.90;91.60;;;;;;5065575;28;20518;-58
2022/06/14 03:35:51;;;;;;;1.45;0.90;;;9.90;91.70;;;;;;5066952;28;20392;-58
2022/06/14 03:38:39;;;;;;;1.98;0.95;;;9.80;91.70;;;;;;5064263;28;20025;-58
2022/06/14 03:41:07;;;;;;;2.28;0.95;;;9.80;91.80;;;;;;5065683;28;20788;-58
2022/06/14 03:43:34;;;;;;;3.95;1.35;;;9.80;91.90;;;;;;5064538;28;20021;-58
2022/06/14 03:46:23;;;;;;;1.85;1.02;;;9.80;92.00;;;;;;5067345;28;20039;-59
2022/06/14 03:48:54;;;;;;;4.50;1.20;;;9.80;92.00;;;;;;5067140;28;20052;-58
2022/06/14 03:51:26;;;;;;;2.47;1.13;;;9.80;92.00;;;;;;5067389;28;20127;-58
2022/06/14 03:54:31;;;;;;;2.42;0.80;;;9.80;92.10;;;;;;5065534;28;20044;-58
2022/06/14 03:57:06;;;;;;;2.85;0.80;;;9.80;92.10;;;;;;5066552;28;20066;-58
2022/06/14 03:59:37;;;;;;;2.25;0.70;;;9.70;92.30;;;;;;5066120;28;20032;-58
2022/06/14 04:02:53;;;;;;;1.60;0.90;;;9.70;92.50;;;;;;5068081;28;20150;-58
2022/06/14 04:05:38;;;;;;;2.63;0.93;;;9.70;92.50;;;;;;5067868;28;20067;-58
2022/06/14 04:08:21;;;;;;;2.95;0.80;;;9.70;92.60;;;;;;5061651;28;20527;-58
2022/06/14 04:11:28;;;;;;;1.77;0.98;;;9.70;92.70;;;;;;5065513;28;20060;-58
2022/06/14 04:13:59;;;;;;;2.30;0.75;;;9.70;92.70;;;;;;5065264;28;20178;-58
2022/06/14 04:16:48;;;;;;;1.98;0.90;;;9.70;92.80;;;;;;5065627;28;20377;-58
2022/06/14 04:19:31;;;;;;;2.75;1.27;;;9.80;92.90;;;;;;5063427;28;20028;-58
2022/06/14 04:22:23;;;;;;;1.65;0.88;;;9.80;92.90;;;;;;5063844;28;20020;-58
2022/06/14 04:25:17;;;;;;;2.70;1.05;;;9.80;93.00;;;;;;5066727;28;20043;-58
2022/06/14 04:27:53;;;;;;;1.52;1.00;;;9.80;93.10;;;;;;5066140;28;20499;-58
2022/06/14 04:30:39;;;;;;;1.00;0.60;;;9.80;93.30;;;;;;5059168;28;20032;-58
2022/06/14 04:33:30;;;;;;;1.33;0.60;;;9.90;93.30;;;;;;5060444;28;20017;-58
2022/06/14 04:36:02;;;;;;;2.60;0.90;;;9.80;93.40;;;;;;5052406;28;20095;-58
2022/06/14 04:38:40;;;;;;;3.00;0.70;;;9.80;93.50;;;;;;5053752;28;20029;-58
2022/06/14 04:41:08;;;;;;;1.65;0.80;;;9.80;93.60;;;;;;5053127;28;20488;-58
2022/06/14 04:44:00;;;;;;;1.63;0.70;;;9.80;93.70;;;;;;5054401;28;20016;-58
2022/06/14 04:46:38;;;;;;;2.45;0.70;;;9.90;93.80;;;;;;5065522;28;20062;-58
2022/06/14 04:49:19;;;;;;;2.03;0.80;;;10.00;93.90;;;;;;5053140;28;20025;-58
2022/06/14 04:51:55;;;;;;;2.90;1.13;;;10.00;93.90;;;;;;5069176;28;20025;-58
2022/06/14 04:54:37;;;;;;;4.72;1.27;;;10.00;93.80;;;;;;5052358;28;20091;-58
2022/06/14 04:57:08;;;;;;;3.58;1.20;;;10.10;93.80;;;;;;5070771;28;20028;-58
2022/06/14 04:59:40;;;;;;;2.20;0.98;;;10.10;93.90;;;;;;5051756;28;20112;-59
2022/06/14 05:02:18;;;;;;;2.50;1.45;;;10.20;93.90;;;;;;5067117;28;20327;-57
2022/06/14 05:04:49;;;;;;;3.30;1.30;;;10.20;93.90;;;;;;5068047;28;20082;-58
2022/06/14 05:07:18;;;;;;;1.98;0.98;;;10.30;93.90;;;;;;5062675;28;20579;-58
2022/06/14 05:10:06;;;;;;;3.50;1.23;;;10.30;94.00;;;;;;5061677;28;20039;-58
2022/06/14 05:12:56;;;;;;;4.40;1.50;;;10.40;94.00;;;;;;5069497;28;20465;-58
2022/06/14 05:15:34;;;;;;;3.40;1.13;;;10.40;94.10;;;;;;5071063;28;20025;-58
2022/06/14 05:18:04;;;;;;;2.72;1.30;;;10.40;94.20;;;;;;5069746;28;20021;-58
2022/06/14 05:20:46;;;;;;;2.75;1.10;;;10.50;94.30;;;;;;5067286;28;20392;-58
2022/06/14 05:23:26;;;;;;;2.85;1.38;;;10.50;94.20;;;;;;5065971;28;20101;-58
2022/06/14 05:26:21;;;;;;;3.00;1.20;;;10.60;94.30;;;;;;5070289;28;20024;-58
2022/06/14 05:29:12;;;;;;;3.85;1.58;;;10.70;94.50;;;;;;5061975;28;20092;-58
2022/06/14 05:31:50;;;;;;;3.10;1.25;;;10.70;94.60;;;;;;5066968;28;20100;-58
2022/06/14 05:34:29;;;;;;;3.67;1.42;;;10.80;94.70;;;;;;5068546;28;20067;-58
2022/06/14 05:36:58;;;;;;;;;;;10.80;94.70;;;;;;5063611;28;20096;-58
2022/06/14 05:39:32;;;;;;;2.95;1.73;;;10.80;94.70;;;;;;5065178;28;19904;-58
2022/06/14 05:42:07;;;;;;;4.80;1.73;;;10.90;94.90;;;;;;5063911;28;20574;-58
2022/06/14 05:44:40;;;;;;;4.38;1.55;;;11.00;95.00;;;;;;5060749;28;20048;-58
2022/06/14 05:47:14;;;;;;;6.60;1.90;;;11.00;95.10;;;;;;5057090;28;20021;-58
2022/06/14 05:49:49;;;;;;;5.05;1.50;;;11.10;95.10;;;;;;5085322;28;20028;-58
2022/06/14 05:52:25;;;;;;;6.63;2.22;;;11.20;95.30;;;;;;5058807;28;20080;-58
2022/06/14 05:54:53;;;;;;;4.45;1.50;;;11.30;95.60;;;;;;5061430;28;20086;-58
2022/06/14 05:57:34;;;;;;;7.03;2.08;;;11.30;95.70;;;;;;5062411;28;20029;-58
2022/06/14 06:00:05;;;;;;;5.45;1.42;;;11.40;95.70;;;;;;5061260;28;20015;-58
2022/06/14 06:02:44;;;;;;;3.60;1.75;;;11.40;95.70;;;;;;5070696;28;20021;-58
2022/06/14 06:05:37;;;;;;;6.88;1.02;;;11.50;95.50;;;;;;5061265;28;20017;-58
2022/06/14 06:08:24;;;;;;;4.53;1.13;;;11.50;95.60;;;;;;5059443;28;20586;-58
2022/06/14 06:10:54;;;;;;;3.47;1.05;;;11.60;95.60;;;;;;5056767;28;20351;-58
2022/06/14 06:13:26;;;;;;;3.30;0.95;;;11.70;95.60;;;;;;5054665;28;20140;-58
2022/06/14 06:16:02;;;;;;;2.70;0.90;;;11.70;95.60;;;;;;5054382;28;20040;-58
2022/06/14 06:18:35;;;;;;;3.22;1.00;;;11.80;95.60;;;;;;5059210;28;20362;-58
2022/06/14 06:21:21;;;;;;;3.22;0.90;;;11.90;95.80;;;;;;5061087;28;20021;-58
2022/06/14 06:23:56;;;;;;;2.83;1.17;;;12.00;95.70;;;;;;5063399;28;20051;-58
2022/06/14 06:26:28;;;;;;;4.07;1.30;;;12.10;95.70;;;;;;5057016;28;20100;-58
2022/06/14 06:28:59;;;;;;;3.95;1.10;;;12.10;95.60;;;;;;5067285;28;20039;-58
2022/06/14 06:31:30;;;;;;;3.22;1.17;;;12.20;95.50;;;;;;5066989;28;20028;-58
2022/06/14 06:33:57;;;;;;;6.28;1.65;;;12.30;95.50;;;;;;5058542;28;20028;-58
2022/06/14 06:36:54;;;;;;;4.05;1.92;;;12.30;95.50;;;;;;5057144;28;20071;-58
2022/06/14 06:39:35;;;;;;;3.45;2.00;;;12.50;95.30;;;;;;5058986;28;20017;-58
2022/06/14 06:42:06;;;;;;;9.90;3.15;;;12.50;95.20;;;;;;5066412;28;20100;-58
2022/06/14 06:44:37;;;;;;;6.38;2.40;;;12.60;95.30;;;;;;5057722;28;20376;-58
2022/06/14 06:47:26;;;;;;;6.60;2.55;;;12.70;95.20;;;;;;5056525;28;20013;-58
2022/06/14 06:50:10;;;;;;;5.32;1.35;;;12.70;95.00;;;;;;5053990;28;20028;-58
2022/06/14 06:52:50;;;;;;;5.22;2.13;;;12.80;95.00;;;;;;5060328;28;20064;-58
2022/06/14 06:55:28;;;;;;;4.20;1.35;;;12.90;95.00;;;;;;5069552;28;20036;-58
2022/06/14 06:57:56;;;;;;;3.55;1.10;;;13.00;94.80;;;;;;5053715;28;20063;-59
2022/06/14 07:00:24;;;;;;;2.47;0.93;;;13.00;94.60;;;;;;5053049;28;20025;-58
2022/06/14 07:02:54;;;;;;;2.55;1.23;;;13.10;94.40;;;;;;5052364;28;20017;-58
2022/06/14 07:05:20;;;;;;;3.95;1.10;;;13.20;94.20;;;;;;5053514;28;20036;-58
2022/06/14 07:07:59;;;;;;;2.90;0.90;;;13.30;94.10;;;;;;5070851;28;20021;-58
2022/06/14 07:10:45;;;;;;;5.07;1.10;;;13.40;93.80;;;;;;5068786;28;20025;-58
2022/06/14 07:13:24;;;;;;;2.55;0.80;;;13.50;93.60;;;;;;5054861;28;20032;-59
2022/06/14 07:15:59;;;;;;;4.07;1.20;;;13.60;93.40;;;;;;5057590;28;20024;-58
2022/06/14 07:18:33;;;;;;;4.32;1.13;;;13.60;93.20;;;;;;5054740;28;20017;-59
2022/06/14 07:21:09;;;;;;;2.58;0.88;;;13.70;93.10;;;;;;5058734;28;20435;-59
2022/06/14 07:23:58;;;;;;;6.82;1.40;;;13.80;92.90;;;;;;5069010;28;20020;-58
2022/06/14 07:26:31;;;;;;;3.10;1.17;;;13.90;92.50;;;;;;5057472;28;20021;-59
2022/06/14 07:29:11;;;;;;;3.08;0.90;;;14.00;92.40;;;;;;5063318;28;20020;-58
2022/06/14 07:32:05;;;;;;;3.63;1.30;;;14.10;92.00;;;;;;5057891;28;20430;-59
2022/06/14 07:34:32;;;;;;;4.63;0.80;;;14.20;91.70;;;;;;5052237;28;20044;-59
2022/06/14 07:37:11;;;;;;;3.88;1.20;;;14.30;91.50;;;;;;5060060;28;20031;-59
2022/06/14 07:39:47;;;;;;;2.03;1.00;;;14.40;91.20;;;;;;5056836;28;20104;-58
2022/06/14 07:42:20;;;;;;;2.25;0.68;;;14.50;90.80;;;;;;5060803;28;20050;-59
2022/06/14 07:44:57;;;;;;;2.67;0.90;;;14.60;90.60;;;;;;5066503;28;20547;-59
2022/06/14 07:47:38;;;;;;;1.67;0.60;;;14.70;90.40;;;;;;5062824;28;20039;-59
2022/06/14 07:50:22;;;;;;;5.50;0.65;;;14.80;90.10;;;;;;5061465;28;20078;-58
2022/06/14 07:53:09;;;;;;;2.00;0.60;;;14.90;89.80;;;;;;5061511;28;20028;-58
2022/06/14 07:55:52;;;;;;;2.88;0.60;;;15.00;89.50;;;;;;5059216;28;20040;-58
2022/06/14 07:58:30;;;;;;;2.38;0.77;;;15.00;89.20;;;;;;5061740;28;20029;-58
2022/06/14 08:01:08;;;;;;;1.23;0.50;;;15.10;88.40;;;;;;5055535;28;20053;-58
2022/06/14 08:03:43;;;;;;;2.47;0.40;;;15.20;87.60;;;;;;5064989;28;20078;-58
2022/06/14 08:06:14;;;;;;;4.68;0.73;;;15.30;86.90;;;;;;5057376;28;20028;-58
2022/06/14 08:08:43;;;;;;;5.03;1.00;;;15.40;86.30;;;;;;5055142;28;20503;-58
2022/06/14 08:11:20;;;;;;;2.70;0.80;;;15.50;85.10;;;;;;5057640;28;20021;-58
2022/06/14 08:14:00;;;;;;;4.15;0.90;;;15.50;84.20;;;;;;5054856;28;20463;-58
2022/06/14 08:16:27;;;;;;;2.65;0.88;;;15.60;84.10;;;;;;5054845;28;20362;-58
2022/06/14 08:19:00;;;;;;;2.17;0.60;;;15.70;84.00;;;;;;5053485;28;20100;-58
2022/06/14 08:21:31;;;;;;;2.33;0.68;;;15.80;83.30;;;;;;5055487;28;20061;-58
2022/06/14 08:24:09;;;;;;;1.58;0.60;;;15.90;82.90;;;;;;5058031;28;20020;-58
2022/06/14 08:27:17;;;;;;;2.30;0.80;;;16.00;82.10;;;;;;5054331;28;20036;-58
2022/06/14 08:29:52;;;;;;;2.38;0.63;;;16.10;81.30;;;;;;5038326;28;20030;-58
2022/06/14 08:32:49;;;;;;;2.10;0.60;;;16.30;80.90;;;;;;5041910;28;20083;-58
2022/06/14 08:35:17;;;;;;;3.90;0.70;;;16.40;80.10;;;;;;5043524;28;20090;-58
2022/06/14 08:37:47;;;;;;;3.10;0.43;;;16.50;78.20;;;;;;5064755;28;20082;-58
2022/06/14 08:40:36;;;;;;;5.38;0.60;;;16.60;77.90;;;;;;5068187;28;20051;-58
2022/06/14 08:43:32;;;;;;;1.40;0.40;;;16.70;77.50;;;;;;5072524;28;20564;-58
2022/06/14 08:46:16;;;;;;;2.80;0.60;;;16.80;77.40;;;;;;5066292;28;20449;-59
2022/06/14 08:49:05;;;;;;;3.58;0.70;;;16.90;76.90;;;;;;5074670;28;20024;-58
2022/06/14 08:51:42;;;;;;;3.50;0.70;;;17.00;76.90;;;;;;5075172;28;20476;-59
2022/06/14 08:54:36;;;;;;;3.33;0.55;;;17.00;76.30;;;;;;5073754;28;20044;-58
2022/06/14 08:57:35;;;;;;;3.30;0.88;;;17.20;76.00;;;;;;5074910;28;20017;-59
2022/06/14 09:00:14;;;;;;;4.18;0.75;;;17.40;75.50;;;;;;5069031;28;20105;-58
2022/06/14 09:02:48;;;;;;;4.03;0.87;;;17.50;74.30;;;;;;5055297;28;20082;-59
2022/06/14 09:05:17;;;;;;;2.50;0.60;;;17.70;73.30;;;;;;5055293;28;20350;-58
2022/06/14 09:08:18;;;;;;;4.50;0.57;;;17.80;72.90;;;;;;5058557;28;20021;-58
2022/06/14 09:11:15;;;;;;;2.78;0.60;;;18.00;72.60;;;;;;5065303;28;20032;-58
2022/06/14 09:14:23;;;;;;;2.72;0.60;;;18.10;72.40;;;;;;5053827;28;20036;-58
2022/06/14 09:17:10;;;;;;;3.28;0.80;;;18.20;72.30;;;;;;5062407;28;20048;-59
2022/06/14 09:20:15;;;;;;;2.85;0.80;;;18.30;71.20;;;;;;5070587;28;20017;-58
2022/06/14 09:22:53;;;;;;;1.55;0.55;;;18.40;70.60;;;;;;5053869;28;20017;-59
2022/06/14 09:25:57;;;;;;;2.63;0.50;;;18.40;70.60;;;;;;5055321;28;20021;-58
2022/06/14 09:28:41;;;;;;;2.80;0.80;;;18.40;70.60;;;;;;5055224;28;20503;-59
2022/06/14 09:31:28;;;;;;;2.80;0.73;;;18.40;70.60;;;;;;5065922;28;20534;-59
2022/06/14 09:34:25;;;;;;;1.90;0.60;;;18.50;70.50;;;;;;5055270;28;20097;-59
2022/06/14 09:37:24;;;;;;;3.10;0.43;;;18.60;69.50;;;;;;5068314;28;20057;-59
2022/06/14 09:40:44;;;;;;;2.03;0.45;;;18.70;69.40;;;;;;5070414;28;20113;-59
2022/06/14 09:43:28;;;;;;;2.75;0.57;;;18.70;68.00;;;;;;5055015;28;20059;-59
2022/06/14 09:46:01;;;;;;;3.45;0.50;;;18.80;67.60;;;;;;5054616;28;20025;-59
2022/06/14 09:48:44;;;;;;;1.40;0.43;;;18.90;67.70;;;;;;5054832;28;20052;-59
2022/06/14 09:51:42;;;;;;;3.58;0.80;;;18.90;67.70;;;;;;5054418;28;20017;-59
2022/06/14 09:54:30;;;;;;;1.05;0.40;;;19.10;67.30;;;;;;5069877;28;20076;-59
2022/06/14 09:57:20;;;;;;;2.75;0.90;;;19.20;66.80;;;;;;5043769;28;20439;-59
2022/06/14 10:00:04;;;;;;;1.88;0.63;;;19.20;65.40;;;;;;5054742;28;20021;-58
2022/06/14 10:02:48;;;;;;;3.00;0.77;;;19.30;65.80;;;;;;5063688;28;20027;-58
2022/06/14 10:05:25;;;;;;;3.75;0.60;;;19.40;66.00;;;;;;5055406;28;20020;-59
2022/06/14 10:07:51;;;;;;;2.65;0.50;;;19.40;65.10;;;;;;5072113;28;20051;-59
2022/06/14 10:10:42;;;;;;;2.83;0.60;;;19.50;65.40;;;;;;5054723;28;20033;-59
2022/06/14 10:13:19;;;;;;;2.10;0.60;;;19.60;65.60;;;;;;5054511;28;20048;-59
2022/06/14 10:16:00;;;;;;;2.72;0.73;;;19.70;65.60;;;;;;5054369;28;20036;-59
2022/06/14 10:18:55;;;;;;;1.30;0.52;;;19.80;65.60;;;;;;5060301;28;20021;-59
2022/06/14 10:21:38;;;;;;;2.33;0.60;;;20.00;65.20;;;;;;5054250;28;20017;-59
2022/06/14 10:24:22;;;;;;;2.15;0.60;;;20.10;64.50;;;;;;5061502;28;20123;-59
2022/06/14 10:29:52;;;;;;;1.70;0.40;;;20.30;63.40;;;;;;5058470;28;20032;-59
2022/06/14 10:32:33;;;;;;;2.33;0.50;;;20.40;63.50;;;;;;5073637;28;20052;-59
2022/06/14 10:35:06;;;;;;;1.90;0.70;;;20.50;62.80;;;;;;5056800;28;20071;-59
2022/06/14 10:38:09;;;;;;;4.82;0.75;;;20.50;62.20;;;;;;5053984;28;20488;-59
2022/06/14 10:40:40;;;;;;;1.75;0.40;;;20.50;60.60;;;;;;5053980;28;20481;-59
2022/06/14 10:43:39;;;;;;;4.57;0.80;;;20.40;60.90;;;;;;5066844;28;20493;-59
2022/06/14 10:46:15;;;;;;;5.07;1.08;;;20.50;59.50;;;;;;5053310;28;20408;-59
2022/06/14 10:49:09;;;;;;;1.92;0.50;;;20.30;59.70;;;;;;5084398;28;20033;-59
2022/06/14 10:52:18;;;;;;;1.73;0.50;;;20.30;59.90;;;;;;5053992;28;20032;-59
2022/06/14 10:55:11;;;;;;;3.90;0.57;;;20.40;59.80;;;;;;5053515;28;20041;-58
2022/06/14 10:57:55;;;;;;;1.88;0.40;;;20.60;59.80;;;;;;5054349;28;20051;-59
2022/06/14 11:00:45;;;;;;;3.10;0.50;;;20.70;59.80;;;;;;5053406;28;20032;-59
2022/06/14 11:03:45;;;;;;;1.60;0.45;;;20.80;59.40;;;;;;5067809;28;20077;-59
2022/06/14 11:07:02;;;;;;;3.75;0.60;;;20.80;59.40;;;;;;5062916;28;20021;-59
2022/06/14 11:09:46;;;;;;;2.75;0.90;;;20.90;59.40;;;;;;5041769;28;20181;-59
2022/06/14 11:12:53;;;;;;;2.80;0.60;;;21.00;58.80;;;;;;5055479;28;20017;-59
2022/06/14 11:15:40;;;;;;;3.70;0.77;;;21.10;58.20;;;;;;5028076;28;20026;-59
2022/06/14 11:18:31;;;;;;;1.65;0.50;;;21.20;58.30;;;;;;5028469;28;20052;-59
2022/06/14 11:21:17;;;;;;;1.90;0.70;;;21.40;58.60;;;;;;5059629;28;20033;-59
2022/06/14 11:24:01;;;;;;;4.25;0.90;;;21.50;58.00;;;;;;5061526;28;20112;-59
2022/06/14 11:26:41;;;;;;;0.93;0.43;;;21.40;55.40;;;;;;5054237;28;20114;-59
2022/06/14 11:29:36;;;;;;;2.33;0.60;;;21.50;56.30;;;;;;5055501;28;20059;-59
2022/06/14 11:32:08;;;;;;;3.85;0.60;;;21.50;55.70;;;;;;5064959;28;20370;-59
2022/06/14 11:34:41;;;;;;;4.63;0.60;;;21.50;56.40;;;;;;5057432;28;20024;-59
2022/06/14 11:37:32;;;;;;;3.53;0.63;;;21.70;56.80;;;;;;5057912;28;20020;-59
2022/06/14 11:40:23;;;;;;;3.42;0.45;;;21.90;56.70;;;;;;5060711;28;20032;-59
2022/06/14 11:43:24;;;;;;;1.85;0.50;;;22.00;57.00;;;;;;5053855;28;20021;-59
2022/06/14 11:45:59;;;;;;;3.42;0.80;;;22.20;56.80;;;;;;5062069;28;20103;-59
2022/06/14 11:48:58;;;;;;;2.25;0.68;;;22.30;56.20;;;;;;5055487;28;20033;-59
2022/06/14 11:51:49;;;;;;;3.78;0.73;;;22.50;56.10;;;;;;5056664;28;20492;-59
2022/06/14 11:54:20;;;;;;;2.15;0.60;;;22.70;56.00;;;;;;5054310;28;20032;-59
2022/06/14 11:57:10;;;;;;;2.80;0.75;;;22.80;55.60;;;;;;5057299;28;20024;-59
2022/06/14 12:00:02;;;;;;;1.67;0.50;;;23.00;55.60;;;;;;5053781;28;20499;-59
2022/06/14 12:02:40;;;;;;;2.03;0.50;;;23.20;54.80;;;;;;5051089;28;20392;-59
2022/06/14 12:05:27;;;;;;;1.55;0.45;;;23.20;54.80;;;;;;5052907;28;20381;-59
2022/06/14 12:08:06;;;;;;;3.17;0.50;;;23.30;54.30;;;;;;5058671;28;20502;-60
2022/06/14 12:10:41;;;;;;;;;;;23.50;53.80;;;;;;5065951;28;20107;-59
2022/06/14 12:13:31;;;;;;;3.22;0.60;;;23.50;53.50;;;;;;5061582;28;19909;-59
2022/06/14 12:16:03;;;;;;;;;;;23.70;53.30;;;;;;5059261;28;20427;-59
2022/06/14 12:18:32;;;;;;;1.88;0.60;;;23.70;51.90;;;;;;5053400;28;19931;-59
2022/06/14 12:21:25;;;;;;;2.20;0.60;;;23.70;52.70;;;;;;5056467;28;20082;-59
2022/06/14 12:23:56;;;;;;;3.75;0.95;;;23.90;52.80;;;;;;5062295;28;20024;-59
2022/06/14 12:26:39;;;;;;;1.42;0.50;;;24.00;52.00;;;;;;5059058;28;20074;-59
2022/06/14 12:29:13;;;;;;;1.23;0.40;;;24.10;52.00;;;;;;5058150;28;20032;-59
2022/06/14 12:31:57;;;;;;;1.95;0.60;;;24.30;52.10;;;;;;5057213;28;20131;-59
2022/06/14 12:34:57;;;;;;;1.67;0.47;;;24.50;51.70;;;;;;5053112;28;20447;-59
2022/06/14 12:37:42;;;;;;;3.00;0.68;;;24.70;51.40;;;;;;5053290;28;20102;-59
2022/06/14 12:40:34;;;;;;;2.25;0.75;;;24.80;50.50;;;;;;5058199;28;20400;-59
2022/06/14 12:43:08;;;;;;;2.17;0.70;;;24.90;50.30;;;;;;5056087;28;20017;-59
2022/06/14 12:45:50;;;;;;;2.95;0.90;;;25.00;48.20;;;;;;5053336;28;20026;-59
2022/06/14 12:48:19;;;;;;;2.22;0.60;;;24.70;48.00;;;;;;5054870;28;20033;-59
2022/06/14 12:51:03;;;;;;;3.88;0.95;;;24.70;49.20;;;;;;5058707;28;20025;-59
2022/06/14 12:54:01;;;;;;;3.35;0.77;;;24.90;49.00;;;;;;5056200;28;20050;-59
2022/06/14 12:56:42;;;;;;;3.42;0.95;;;25.20;48.90;;;;;;5052550;28;20060;-59
2022/06/14 12:59:29;;;;;;;1.70;0.55;;;25.30;48.60;;;;;;5053112;28;20029;-59
2022/06/14 13:02:15;;;;;;;2.40;0.65;;;25.60;48.60;;;;;;5057129;28;20128;-59
2022/06/14 13:04:58;;;;;;;2.55;0.65;;;25.80;48.50;;;;;;5053928;28;20062;-60
2022/06/14 13:07:49;;;;;;;1.92;0.60;;;25.90;48.10;;;;;;5063257;28;20126;-59
2022/06/14 13:10:41;;;;;;;3.58;0.88;;;26.00;48.00;;;;;;5057118;28;20513;-59
2022/06/14 13:13:12;;;;;;;7.07;1.10;;;26.00;47.50;;;;;;5061451;28;20328;-60
2022/06/14 13:16:08;;;;;;;3.67;1.55;;;25.90;47.60;;;;;;5054495;28;20485;-59
2022/06/14 13:18:55;;;;;;;2.97;0.70;;;25.80;47.30;;;;;;5059851;28;20017;-60
2022/06/14 13:21:28;;;;;;;3.63;1.08;;;25.90;47.90;;;;;;5059594;28;20039;-59
2022/06/14 13:24:23;;;;;;;1.70;0.65;;;26.00;48.30;;;;;;5057718;28;20052;-59
2022/06/14 13:27:17;;;;;;;1.70;0.60;;;26.10;48.20;;;;;;5058162;28;20040;-59
2022/06/14 13:29:57;;;;;;;2.55;0.80;;;26.30;48.20;;;;;;5064932;28;20085;-60
2022/06/14 13:32:30;;;;;;;2.92;0.73;;;26.40;46.00;;;;;;5060619;28;20036;-59
2022/06/14 13:35:14;;;;;;;1.50;0.52;;;26.40;46.30;;;;;;5066980;28;20032;-60
2022/06/14 13:37:54;;;;;;;3.42;0.90;;;26.50;46.20;;;;;;5060324;28;20033;-60
2022/06/14 13:40:22;;;;;;;1.17;0.40;;;26.70;45.50;;;;;;5059408;28;20025;-59
2022/06/14 13:43:14;;;;;;;2.20;0.47;;;26.80;45.70;;;;;;5064200;28;20028;-60
2022/06/14 13:46:24;;;;;;;2.25;0.50;;;27.00;46.00;;;;;;5069196;28;20028;-60
2022/06/14 13:49:04;;;;;;;3.20;0.68;;;27.10;45.70;;;;;;5050792;28;20503;-60
2022/06/14 13:51:37;;;;;;;3.25;0.60;;;27.20;45.40;;;;;;5057125;28;20051;-60
2022/06/14 13:54:18;;;;;;;1.95;0.65;;;27.30;45.20;;;;;;5059731;28;20059;-60
2022/06/14 13:56:58;;;;;;;3.38;0.95;;;27.40;44.70;;;;;;5059586;28;20108;-60
2022/06/14 13:59:30;;;;;;;3.20;0.65;;;27.40;44.40;;;;;;5059799;28;20020;-60
2022/06/14 14:02:14;;;;;;;3.38;0.98;;;27.40;44.00;;;;;;5061774;28;20532;-60
2022/06/14 14:04:53;;;;;;;2.90;0.68;;;27.50;43.90;;;;;;5062096;28;20036;-60